Time;durP1;ratioP1;P1;durP2;ratioP2;P2;SDS_P1;SDS_P2;PMS_P1;PMS_P2;Temp;Humidity;BMP_temperature;BMP_pressure;BME280_temperature;BME280_humidity;BME280_pressure;Samples;Min_cycle;Max_cycle;Signal;HPM_P1;HPM_P2
2021/01/05 00:00:29;;;;;;;55.60;32.50;;;;;;;;;;5107185;28;20187;-52
2021/01/05 00:02:55;;;;;;;55.70;33.40;;;;;;;;;;5110387;28;20257;-52
2021/01/05 00:05:21;;;;;;;58.70;33.65;;;;;;;;;;5110325;28;20224;-51
2021/01/05 00:07:47;;;;;;;54.03;31.93;;;;;;;;;;5110886;27;20162;-52
2021/01/05 00:10:12;;;;;;;59.58;33.53;;;;;;;;;;5108136;27;20598;-51
2021/01/05 00:12:37;;;;;;;58.93;34.50;;;;;;;;;;5112155;27;20177;-53
2021/01/05 00:15:04;;;;;;;59.80;33.33;;;;;;;;;;5110293;28;20521;-53
2021/01/05 00:17:29;;;;;;;55.03;35.13;;;;;;;;;;5109677;28;20260;-51
2021/01/05 00:19:54;;;;;;;56.63;32.40;;;;;;;;;;5107034;28;20804;-52
2021/01/05 00:22:20;;;;;;;52.88;32.60;;;;;;;;;;5110565;27;20208;-51
2021/01/05 00:24:45;;;;;;;52.40;33.13;;;;;;;;;;5109765;28;20209;-52
2021/01/05 00:27:11;;;;;;;58.05;34.33;;;;;;;;;;5110186;28;20212;-53
2021/01/05 00:29:36;;;;;;;51.87;32.20;;;;;;;;;;5107341;28;20167;-52
2021/01/05 00:32:15;;;;;;;57.23;32.70;;;;;;;;;;5109593;28;20580;-51
2021/01/05 00:34:42;;;;;;;56.97;32.93;;;;;;;;;;5109704;28;20263;-53
2021/01/05 00:37:07;;;;;;;60.10;35.30;;;;;;;;;;5109339;28;20649;-53
2021/01/05 00:39:32;;;;;;;56.90;32.67;;;;;;;;;;5106998;28;20597;-52
2021/01/05 00:41:57;;;;;;;59.17;33.42;;;;;;;;;;5109790;28;20599;-52
2021/01/05 00:44:22;;;;;;;54.38;31.52;;;;;;;;;;5110018;28;20685;-52
2021/01/05 00:46:48;;;;;;;54.00;32.10;;;;;;;;;;5112062;28;20226;-53
2021/01/05 00:49:13;;;;;;;59.25;32.47;;;;;;;;;;5109745;28;20169;-53
2021/01/05 00:51:38;;;;;;;58.33;33.80;;;;;;;;;;5107619;28;20199;-53
2021/01/05 00:54:03;;;;;;;67.17;36.40;;;;;;;;;;5109685;28;20161;-53
2021/01/05 00:56:28;;;;;;;47.67;30.60;;;;;;;;;;5109181;28;20238;-52
2021/01/05 00:58:53;;;;;;;58.10;33.45;;;;;;;;;;5109708;28;20671;-52
2021/01/05 01:01:20;;;;;;;57.92;32.88;;;;;;;;;;5115318;28;20675;-53
2021/01/05 01:03:45;;;;;;;53.97;31.00;;;;;;;;;;5111016;28;20171;-53
2021/01/05 01:06:10;;;;;;;64.68;34.72;;;;;;;;;;5113578;28;20644;-52
2021/01/05 01:08:35;;;;;;;57.13;32.33;;;;;;;;;;5113508;28;20181;-52
2021/01/05 01:11:00;;;;;;;50.78;31.33;;;;;;;;;;5112050;28;20523;-52
2021/01/05 01:13:26;;;;;;;52.80;31.80;;;;;;;;;;5112765;28;20186;-52
2021/01/05 01:15:51;;;;;;;59.33;33.93;;;;;;;;;;5114222;28;20648;-52
2021/01/05 01:18:16;;;;;;;54.70;32.03;;;;;;;;;;5113202;28;20263;-52
2021/01/05 01:20:41;;;;;;;56.90;31.87;;;;;;;;;;5110832;28;20197;-52
2021/01/05 01:23:06;;;;;;;53.30;30.83;;;;;;;;;;5113411;28;20169;-51
2021/01/05 01:25:31;;;;;;;53.43;31.80;;;;;;;;;;5112807;28;20697;-52
2021/01/05 01:27:57;;;;;;;56.07;31.70;;;;;;;;;;5113490;28;20162;-52
2021/01/05 01:30:22;;;;;;;51.03;31.13;;;;;;;;;;5112678;28;20183;-53
2021/01/05 01:32:47;;;;;;;51.33;30.60;;;;;;;;;;5112265;28;20189;-52
2021/01/05 01:35:13;;;;;;;58.23;32.43;;;;;;;;;;5113176;28;20231;-52
2021/01/05 01:37:38;;;;;;;57.17;32.00;;;;;;;;;;5113258;28;20180;-52
2021/01/05 01:40:04;;;;;;;53.88;31.17;;;;;;;;;;5112843;28;20212;-52
2021/01/05 01:42:29;;;;;;;53.50;31.17;;;;;;;;;;5112500;28;20189;-52
2021/01/05 01:44:54;;;;;;;57.03;31.90;;;;;;;;;;5112805;27;20611;-51
2021/01/05 01:47:22;;;;;;;52.93;31.93;;;;;;;;;;5113311;28;20180;-51
2021/01/05 01:49:48;;;;;;;50.50;30.40;;;;;;;;;;5110415;28;20180;-53
2021/01/05 01:52:17;;;;;;;55.00;32.00;;;;;;;;;;5110022;28;21424;-52
2021/01/05 01:54:59;;;;;;;55.77;31.43;;;;;;;;;;5112539;28;20611;-52
2021/01/05 01:57:31;;;;;;;52.23;31.53;;;;;;;;;;5112415;28;20597;-52
2021/01/05 02:00:07;;;;;;;57.63;33.67;;;;;;;;;;5110427;28;20588;-53
2021/01/05 02:02:54;;;;;;;55.97;32.80;;;;;;;;;;5115913;27;21018;-53
2021/01/05 02:05:26;;;;;;;57.67;32.33;;;;;;;;;;5106448;28;20671;-53
2021/01/05 02:08:00;;;;;;;52.17;31.20;;;;;;;;;;5112068;28;20605;-54
2021/01/05 02:10:32;;;;;;;56.97;31.97;;;;;;;;;;5112339;28;20710;-54
2021/01/05 02:13:00;;;;;;;57.30;31.97;;;;;;;;;;5109653;27;20597;-52
2021/01/05 02:15:28;;;;;;;68.73;35.67;;;;;;;;;;5119925;27;20606;-53
2021/01/05 02:18:01;;;;;;;57.53;33.07;;;;;;;;;;5112088;28;20614;-53
2021/01/05 02:20:31;;;;;;;51.00;30.27;;;;;;;;;;5110023;28;20609;-53
2021/01/05 02:23:11;;;;;;;53.47;32.63;;;;;;;;;;5109897;28;20606;-54
2021/01/05 02:25:55;;;;;;;54.57;32.60;;;;;;;;;;5108051;28;20741;-54
2021/01/05 02:28:21;;;;;;;50.90;31.27;;;;;;;;;;5106315;28;20600;-53
2021/01/05 02:30:50;;;;;;;48.13;30.10;;;;;;;;;;5107628;28;20633;-53
2021/01/05 02:33:27;;;;;;;51.77;31.40;;;;;;;;;;5111963;28;20603;-54
2021/01/05 02:36:04;;;;;;;55.07;31.30;;;;;;;;;;5113440;27;21041;-55
2021/01/05 02:38:50;;;;;;;52.17;29.17;;;;;;;;;;5112312;28;21253;-54
2021/01/05 02:41:15;;;;;;;50.83;31.10;;;;;;;;;;5109945;28;20603;-53
2021/01/05 02:43:40;;;;;;;53.90;29.95;;;;;;;;;;5111871;28;20699;-54
2021/01/05 02:46:20;;;;;;;45.80;28.92;;;;;;;;;;5118074;27;20244;-55
2021/01/05 02:49:04;;;;;;;49.70;31.53;;;;;;;;;;5111526;28;20537;-54
2021/01/05 02:51:31;;;;;;;46.80;27.23;;;;;;;;;;5101994;28;20606;-53
2021/01/05 02:54:15;;;;;;;51.43;28.97;;;;;;;;;;5110054;28;20600;-54
2021/01/05 02:56:55;;;;;;;52.67;30.77;;;;;;;;;;5110251;28;20609;-54
2021/01/05 02:59:38;;;;;;;48.73;30.87;;;;;;;;;;5102964;28;20603;-54
2021/01/05 03:02:12;;;;;;;50.37;30.40;;;;;;;;;;5106253;28;20602;-54
2021/01/05 03:04:38;;;;;;;48.50;30.17;;;;;;;;;;5111041;28;21331;-54
2021/01/05 03:07:06;;;;;;;52.80;30.35;;;;;;;;;;5112107;27;21607;-53
2021/01/05 03:09:45;;;;;;;50.67;30.70;;;;;;;;;;5111405;28;20192;-54
2021/01/05 03:12:16;;;;;;;52.20;29.70;;;;;;;;;;5106836;28;20603;-53
2021/01/05 03:14:47;;;;;;;53.93;29.67;;;;;;;;;;5111291;28;20702;-53
2021/01/05 03:17:23;;;;;;;54.37;30.63;;;;;;;;;;5110637;28;20611;-54
2021/01/05 03:19:55;;;;;;;47.67;27.07;;;;;;;;;;5110578;28;21248;-54
2021/01/05 03:22:24;;;;;;;49.73;28.70;;;;;;;;;;5106692;28;20630;-53
2021/01/05 03:24:51;;;;;;;51.60;31.33;;;;;;;;;;5110424;28;21078;-52
2021/01/05 03:27:17;;;;;;;50.23;28.70;;;;;;;;;;5109626;28;20614;-53
2021/01/05 03:29:42;;;;;;;41.70;27.17;;;;;;;;;;5110571;28;20617;-54
2021/01/05 03:32:08;;;;;;;47.70;29.20;;;;;;;;;;5106566;28;20591;-53
2021/01/05 03:34:34;;;;;;;49.37;30.00;;;;;;;;;;5110581;28;20180;-53
2021/01/05 03:36:59;;;;;;;47.33;29.80;;;;;;;;;;5110578;28;20599;-53
2021/01/05 03:39:24;;;;;;;44.40;26.83;;;;;;;;;;5110348;28;20165;-53
2021/01/05 03:41:49;;;;;;;43.43;27.80;;;;;;;;;;5106750;28;20172;-53
2021/01/05 03:44:14;;;;;;;45.70;28.75;;;;;;;;;;5110049;28;20566;-53
2021/01/05 03:46:39;;;;;;;44.30;27.53;;;;;;;;;;5110689;28;20564;-53
2021/01/05 03:49:05;;;;;;;44.60;28.10;;;;;;;;;;5110062;28;20179;-53
2021/01/05 03:51:30;;;;;;;51.00;29.30;;;;;;;;;;5106883;28;20235;-53
2021/01/05 03:53:55;;;;;;;44.67;26.60;;;;;;;;;;5110542;28;20169;-54
2021/01/05 03:56:20;;;;;;;44.57;26.87;;;;;;;;;;5109938;28;20229;-53
2021/01/05 03:58:45;;;;;;;46.50;29.15;;;;;;;;;;5109716;28;20283;-53
2021/01/05 04:01:11;;;;;;;46.17;27.20;;;;;;;;;;5114182;27;20758;-53
2021/01/05 04:03:36;;;;;;;44.33;28.03;;;;;;;;;;5110147;28;20176;-53
2021/01/05 04:06:01;;;;;;;42.58;28.08;;;;;;;;;;5110789;28;20204;-53
2021/01/05 04:08:27;;;;;;;37.17;26.13;;;;;;;;;;5110146;28;20179;-53
2021/01/05 04:10:52;;;;;;;40.67;24.93;;;;;;;;;;5107692;28;20692;-53
2021/01/05 04:13:18;;;;;;;43.57;28.20;;;;;;;;;;5109704;28;20605;-53
2021/01/05 04:15:43;;;;;;;40.95;26.70;;;;;;;;;;5110110;28;20458;-53
2021/01/05 04:18:08;;;;;;;45.03;27.65;;;;;;;;;;5113951;27;20180;-53
2021/01/05 04:20:33;;;;;;;45.47;26.30;;;;;;;;;;5107880;28;20226;-53
2021/01/05 04:22:59;;;;;;;41.33;25.90;;;;;;;;;;5110180;28;20695;-52
2021/01/05 04:25:24;;;;;;;38.93;25.70;;;;;;;;;;5109008;28;20200;-53
2021/01/05 04:27:50;;;;;;;40.33;24.73;;;;;;;;;;5109509;28;20172;-54
2021/01/05 04:30:19;;;;;;;46.63;27.87;;;;;;;;;;5110766;28;20199;-53
2021/01/05 04:32:45;;;;;;;41.17;27.33;;;;;;;;;;5108173;28;20253;-53
2021/01/05 04:35:14;;;;;;;42.40;25.50;;;;;;;;;;5109889;28;20687;-54
2021/01/05 04:37:39;;;;;;;45.43;27.07;;;;;;;;;;5109375;28;20236;-52
2021/01/05 04:40:05;;;;;;;42.05;26.80;;;;;;;;;;5108831;28;20607;-53
2021/01/05 04:42:41;;;;;;;45.33;27.00;;;;;;;;;;5107422;28;20192;-52
2021/01/05 04:45:07;;;;;;;43.57;26.67;;;;;;;;;;5104197;28;20697;-53
2021/01/05 04:47:58;;;;;;;45.10;26.73;;;;;;;;;;5109766;28;20634;-54
2021/01/05 04:50:30;;;;;;;40.70;24.80;;;;;;;;;;5109177;28;20179;-53
2021/01/05 04:53:02;;;;;;;42.43;26.57;;;;;;;;;;5107873;28;20605;-53
2021/01/05 04:55:46;;;;;;;40.07;25.33;;;;;;;;;;5110009;28;21225;-53
2021/01/05 04:58:37;;;;;;;42.77;26.27;;;;;;;;;;5108675;28;20633;-54
2021/01/05 05:01:06;;;;;;;44.30;27.57;;;;;;;;;;5099833;28;20611;-53
2021/01/05 05:03:42;;;;;;;44.90;27.40;;;;;;;;;;5109675;28;20598;-53
2021/01/05 05:06:07;;;;;;;41.17;26.77;;;;;;;;;;5109613;28;20676;-54
2021/01/05 05:08:45;;;;;;;41.83;26.33;;;;;;;;;;5109409;28;20598;-53
2021/01/05 05:11:12;;;;;;;41.70;25.93;;;;;;;;;;5106971;28;20172;-53
2021/01/05 05:13:44;;;;;;;47.37;28.73;;;;;;;;;;5109403;28;20592;-52
2021/01/05 05:16:20;;;;;;;43.37;25.63;;;;;;;;;;5112946;28;20656;-53
2021/01/05 05:19:03;;;;;;;38.17;24.77;;;;;;;;;;5109070;28;20641;-52
2021/01/05 05:21:40;;;;;;;41.67;26.50;;;;;;;;;;5102604;28;20624;-53
2021/01/05 05:24:20;;;;;;;46.67;27.90;;;;;;;;;;5109579;28;20638;-52
2021/01/05 05:27:03;;;;;;;39.50;25.50;;;;;;;;;;5109493;28;20656;-52
2021/01/05 05:29:29;;;;;;;43.27;25.50;;;;;;;;;;5108875;28;20943;-51
2021/01/05 05:31:55;;;;;;;39.65;24.88;;;;;;;;;;5106731;28;20971;-52
2021/01/05 05:34:33;;;;;;;39.87;25.50;;;;;;;;;;5107604;28;20185;-52
2021/01/05 05:37:18;;;;;;;36.83;23.47;;;;;;;;;;5109583;28;20590;-52
2021/01/05 05:40:02;;;;;;;47.73;27.03;;;;;;;;;;5097284;28;20607;-53
2021/01/05 05:42:31;;;;;;;39.60;23.20;;;;;;;;;;5113152;28;20599;-52
2021/01/05 05:44:59;;;;;;;34.40;23.47;;;;;;;;;;5105817;28;20649;-52
2021/01/05 05:47:32;;;;;;;41.93;24.67;;;;;;;;;;5105531;28;20691;-52
2021/01/05 05:50:15;;;;;;;36.73;23.37;;;;;;;;;;5104788;28;20667;-52
2021/01/05 05:52:50;;;;;;;37.20;24.23;;;;;;;;;;5107567;28;20611;-53
2021/01/05 05:55:28;;;;;;;37.50;23.77;;;;;;;;;;5108899;28;20630;-52
2021/01/05 05:57:54;;;;;;;33.67;23.70;;;;;;;;;;5109801;27;20624;-52
2021/01/05 06:00:28;;;;;;;48.30;27.67;;;;;;;;;;5111977;27;20662;-52
2021/01/05 06:02:53;;;;;;;33.23;22.43;;;;;;;;;;5108211;27;21195;-51
2021/01/05 06:05:18;;;;;;;38.37;24.40;;;;;;;;;;5109939;28;20677;-51
2021/01/05 06:07:43;;;;;;;42.75;26.27;;;;;;;;;;5109347;28;20209;-52
2021/01/05 06:10:09;;;;;;;41.13;25.52;;;;;;;;;;5109124;28;20275;-53
2021/01/05 06:12:34;;;;;;;35.53;23.20;;;;;;;;;;5107472;28;20196;-52
2021/01/05 06:14:59;;;;;;;34.60;22.70;;;;;;;;;;5109295;27;20180;-51
2021/01/05 06:17:24;;;;;;;35.33;23.73;;;;;;;;;;5097142;28;20203;-51
2021/01/05 06:19:49;;;;;;;32.45;22.20;;;;;;;;;;5109358;28;20223;-52
2021/01/05 06:22:14;;;;;;;33.28;21.45;;;;;;;;;;5106609;28;20189;-53
2021/01/05 06:24:39;;;;;;;34.77;22.37;;;;;;;;;;5107261;28;20287;-52
2021/01/05 06:27:05;;;;;;;36.10;22.40;;;;;;;;;;5108663;28;20644;-52
2021/01/05 06:29:30;;;;;;;29.40;21.27;;;;;;;;;;5108384;28;20173;-52
2021/01/05 06:31:55;;;;;;;32.85;23.00;;;;;;;;;;5108282;28;20184;-51
2021/01/05 06:34:20;;;;;;;34.30;21.90;;;;;;;;;;5104659;27;20180;-51
2021/01/05 06:36:45;;;;;;;33.95;22.90;;;;;;;;;;5110771;27;20176;-51
2021/01/05 06:39:10;;;;;;;31.10;21.35;;;;;;;;;;5110259;27;20299;-52
2021/01/05 06:41:36;;;;;;;34.05;20.83;;;;;;;;;;5101184;27;20182;-50
2021/01/05 06:44:01;;;;;;;31.23;20.80;;;;;;;;;;5103898;27;20710;-49
2021/01/05 06:46:26;;;;;;;28.80;20.63;;;;;;;;;;5112615;27;20223;-52
2021/01/05 06:48:51;;;;;;;30.25;20.00;;;;;;;;;;5110537;27;20184;-50
2021/01/05 06:51:16;;;;;;;30.60;20.02;;;;;;;;;;5116603;27;20288;-51
2021/01/05 06:53:41;;;;;;;33.50;21.40;;;;;;;;;;5109338;27;20179;-50
2021/01/05 06:56:07;;;;;;;28.10;18.88;;;;;;;;;;5105050;27;20167;-50
2021/01/05 06:58:32;;;;;;;28.80;20.35;;;;;;;;;;5100427;27;20180;-50
2021/01/05 07:00:57;;;;;;;26.83;18.50;;;;;;;;;;5107664;28;20687;-50
2021/01/05 07:03:22;;;;;;;30.20;20.88;;;;;;;;;;5103185;28;20214;-50
2021/01/05 07:05:47;;;;;;;29.50;19.77;;;;;;;;;;5106256;28;20254;-50
2021/01/05 07:08:12;;;;;;;29.67;20.10;;;;;;;;;;5108309;28;20182;-49
2021/01/05 07:10:37;;;;;;;29.27;19.63;;;;;;;;;;5107797;28;20177;-50
2021/01/05 07:13:03;;;;;;;29.88;20.15;;;;;;;;;;5106263;28;20194;-49
2021/01/05 07:15:28;;;;;;;27.60;19.80;;;;;;;;;;5107615;28;20180;-48
2021/01/05 07:17:53;;;;;;;26.50;20.30;;;;;;;;;;5107767;28;20240;-48
2021/01/05 07:20:18;;;;;;;29.08;19.02;;;;;;;;;;5110205;28;20224;-48
2021/01/05 07:22:43;;;;;;;30.93;20.87;;;;;;;;;;5106918;28;20181;-50
2021/01/05 07:25:13;;;;;;;29.73;20.20;;;;;;;;;;5110143;27;20211;-51
2021/01/05 07:27:39;;;;;;;30.13;20.07;;;;;;;;;;5115101;27;20183;-50
2021/01/05 07:30:05;;;;;;;30.80;20.27;;;;;;;;;;5110828;27;20598;-50
2021/01/05 07:32:30;;;;;;;30.70;20.60;;;;;;;;;;5109871;28;20169;-50
2021/01/05 07:34:55;;;;;;;34.45;22.25;;;;;;;;;;5122199;27;20693;-52
2021/01/05 07:37:23;;;;;;;31.35;20.15;;;;;;;;;;5122000;27;20529;-52
2021/01/05 07:39:48;;;;;;;29.63;20.27;;;;;;;;;;5111027;27;20222;-52
2021/01/05 07:42:22;;;;;;;32.57;20.80;;;;;;;;;;5108014;27;20604;-52
2021/01/05 07:44:48;;;;;;;31.77;21.83;;;;;;;;;;5105796;27;20183;-51
2021/01/05 07:47:14;;;;;;;29.10;19.90;;;;;;;;;;5114670;27;20600;-52
2021/01/05 07:49:39;;;;;;;29.77;19.63;;;;;;;;;;5119460;27;20630;-52
2021/01/05 07:52:20;;;;;;;29.58;20.73;;;;;;;;;;5119065;27;20664;-52
2021/01/05 07:54:46;;;;;;;30.57;19.80;;;;;;;;;;5112444;27;20179;-52
2021/01/05 07:57:11;;;;;;;31.40;19.77;;;;;;;;;;5118149;27;20591;-52
2021/01/05 07:59:36;;;;;;;29.00;20.13;;;;;;;;;;5118236;27;20225;-52
2021/01/05 08:02:01;;;;;;;26.30;18.43;;;;;;;;;;5112131;27;20183;-53
2021/01/05 08:04:27;;;;;;;30.40;19.40;;;;;;;;;;5107824;27;20195;-52
2021/01/05 08:06:52;;;;;;;31.00;19.97;;;;;;;;;;5111157;27;20210;-52
2021/01/05 08:09:17;;;;;;;29.08;19.42;;;;;;;;;;5119981;27;20165;-52
2021/01/05 08:11:42;;;;;;;29.70;19.57;;;;;;;;;;5127134;27;20183;-52
2021/01/05 08:14:07;;;;;;;29.48;18.73;;;;;;;;;;5119854;27;20515;-52
2021/01/05 08:16:32;;;;;;;29.03;19.20;;;;;;;;;;5122471;27;20177;-52
2021/01/05 08:18:58;;;;;;;31.47;20.27;;;;;;;;;;5110454;27;20647;-52
2021/01/05 08:21:24;;;;;;;31.80;20.00;;;;;;;;;;5097737;28;20181;-52
2021/01/05 08:23:49;;;;;;;28.53;18.30;;;;;;;;;;5096368;27;20548;-52
2021/01/05 08:26:14;;;;;;;26.90;18.83;;;;;;;;;;5111291;28;20664;-53
2021/01/05 08:28:39;;;;;;;29.97;20.70;;;;;;;;;;5121013;28;20170;-52
2021/01/05 08:31:04;;;;;;;23.48;17.17;;;;;;;;;;5130630;27;20583;-52
2021/01/05 08:33:29;;;;;;;27.53;18.10;;;;;;;;;;5129546;27;20173;-52
2021/01/05 08:35:55;;;;;;;25.10;17.98;;;;;;;;;;5120437;27;20177;-52
2021/01/05 08:38:20;;;;;;;29.20;18.43;;;;;;;;;;5100884;28;20194;-51
2021/01/05 08:40:45;;;;;;;27.17;18.80;;;;;;;;;;5090089;28;20538;-52
2021/01/05 08:43:10;;;;;;;27.42;17.65;;;;;;;;;;5088396;28;20556;-52
2021/01/05 08:45:39;;;;;;;25.70;17.87;;;;;;;;;;5105033;28;20229;-52
2021/01/05 08:48:04;;;;;;;25.80;17.10;;;;;;;;;;5127446;28;20166;-52
2021/01/05 08:50:31;;;;;;;21.73;16.70;;;;;;;;;;5131073;28;20580;-52
2021/01/05 08:52:57;;;;;;;26.60;17.07;;;;;;;;;;5128827;28;20688;-52
2021/01/05 08:55:22;;;;;;;26.13;17.33;;;;;;;;;;5098842;28;20718;-52
2021/01/05 08:57:47;;;;;;;24.80;17.20;;;;;;;;;;5102568;28;20181;-51
2021/01/05 09:00:13;;;;;;;24.30;16.67;;;;;;;;;;5110718;28;20185;-52
2021/01/05 09:02:47;;;;;;;26.23;17.73;;;;;;;;;;5119338;28;20212;-52
2021/01/05 09:05:13;;;;;;;27.07;18.30;;;;;;;;;;5106679;28;20191;-51
2021/01/05 09:07:38;;;;;;;23.27;16.50;;;;;;;;;;5110418;28;21126;-52
2021/01/05 09:10:04;;;;;;;27.70;16.83;;;;;;;;;;5109975;28;20172;-52
2021/01/05 09:12:33;;;;;;;21.80;16.80;;;;;;;;;;5107987;28;20189;-52
2021/01/05 09:14:59;;;;;;;20.90;15.97;;;;;;;;;;5110269;28;20600;-51
2021/01/05 09:17:24;;;;;;;26.33;16.90;;;;;;;;;;5110110;28;20602;-52
2021/01/05 09:19:49;;;;;;;27.90;17.33;;;;;;;;;;5109849;28;20686;-51
2021/01/05 09:22:14;;;;;;;25.75;17.83;;;;;;;;;;5109581;28;20265;-51
2021/01/05 09:24:39;;;;;;;27.08;17.40;;;;;;;;;;5107149;28;20204;-51
2021/01/05 09:27:04;;;;;;;22.13;17.08;;;;;;;;;;5113610;28;20643;-51
2021/01/05 09:29:29;;;;;;;23.88;16.30;;;;;;;;;;5113867;28;20262;-51
2021/01/05 09:31:56;;;;;;;22.40;15.60;;;;;;;;;;5113688;28;20180;-53
2021/01/05 09:34:23;;;;;;;19.13;14.60;;;;;;;;;;5111392;28;20187;-53
2021/01/05 09:36:51;;;;;;;22.83;16.70;;;;;;;;;;5112488;28;21189;-53
2021/01/05 09:39:16;;;;;;;22.93;16.07;;;;;;;;;;5113786;28;20972;-51
2021/01/05 09:41:44;;;;;;;21.10;15.50;;;;;;;;;;5113615;28;20601;-52
2021/01/05 09:44:10;;;;;;;22.17;16.13;;;;;;;;;;5111331;27;20183;-51
2021/01/05 09:46:35;;;;;;;19.90;15.20;;;;;;;;;;5111786;28;20636;-51
2021/01/05 09:49:01;;;;;;;24.73;15.43;;;;;;;;;;5113187;28;20260;-52
2021/01/05 09:51:27;;;;;;;26.23;15.50;;;;;;;;;;5112987;28;20167;-52
2021/01/05 09:53:52;;;;;;;23.60;17.07;;;;;;;;;;5110573;28;20204;-51
2021/01/05 09:56:18;;;;;;;21.40;15.73;;;;;;;;;;5113190;28;20603;-51
2021/01/05 09:58:43;;;;;;;22.40;16.13;;;;;;;;;;5113015;28;20734;-52
2021/01/05 10:01:08;;;;;;;23.93;16.13;;;;;;;;;;5113000;28;20259;-51
2021/01/05 10:03:34;;;;;;;24.60;17.00;;;;;;;;;;5107098;28;20643;-51
2021/01/05 10:05:59;;;;;;;28.13;15.40;;;;;;;;;;5119477;27;20280;-51
2021/01/05 10:08:24;;;;;;;23.27;15.18;;;;;;;;;;5113254;28;20405;-51
2021/01/05 10:10:49;;;;;;;19.40;14.40;;;;;;;;;;5098945;27;20171;-52
2021/01/05 10:13:14;;;;;;;22.90;16.40;;;;;;;;;;5111226;28;20180;-51
2021/01/05 10:15:40;;;;;;;27.27;16.83;;;;;;;;;;5113471;27;20187;-52
2021/01/05 10:18:05;;;;;;;25.73;16.07;;;;;;;;;;5123432;27;20758;-50
2021/01/05 10:20:31;;;;;;;29.13;17.70;;;;;;;;;;5116195;27;20233;-52
2021/01/05 10:22:57;;;;;;;21.60;16.10;;;;;;;;;;5105629;27;20180;-52
2021/01/05 10:25:22;;;;;;;20.80;14.50;;;;;;;;;;5133468;27;20743;-52
2021/01/05 10:27:48;;;;;;;24.93;15.50;;;;;;;;;;5128592;27;20659;-51
2021/01/05 10:30:14;;;;;;;21.97;15.17;;;;;;;;;;5106838;27;20172;-51
2021/01/05 10:32:42;;;;;;;22.80;15.70;;;;;;;;;;5133514;27;21041;-51
2021/01/05 10:35:07;;;;;;;24.50;16.00;;;;;;;;;;5114953;27;20256;-50
2021/01/05 10:37:32;;;;;;;22.50;15.57;;;;;;;;;;5112215;28;20609;-51
2021/01/05 10:39:57;;;;;;;21.55;15.75;;;;;;;;;;5113396;27;20209;-49
2021/01/05 10:42:23;;;;;;;24.03;15.60;;;;;;;;;;5113511;27;20258;-49
2021/01/05 10:44:48;;;;;;;22.88;16.00;;;;;;;;;;5093525;28;20178;-52
2021/01/05 10:47:14;;;;;;;21.65;14.88;;;;;;;;;;5091334;28;20166;-51
2021/01/05 10:49:40;;;;;;;20.60;15.20;;;;;;;;;;5101710;27;20247;-51
2021/01/05 10:52:05;;;;;;;22.10;15.50;;;;;;;;;;5111904;27;21136;-51
2021/01/05 10:54:31;;;;;;;23.87;16.33;;;;;;;;;;5106419;28;20197;-49
2021/01/05 10:56:57;;;;;;;20.30;15.13;;;;;;;;;;5108228;28;20615;-50
2021/01/05 10:59:23;;;;;;;21.53;15.47;;;;;;;;;;5110043;28;20280;-49
2021/01/05 11:01:48;;;;;;;20.20;14.50;;;;;;;;;;5112948;28;20613;-50
2021/01/05 11:04:13;;;;;;;19.73;14.60;;;;;;;;;;5109833;28;20189;-50
2021/01/05 11:06:38;;;;;;;22.77;16.15;;;;;;;;;;5111825;28;20193;-50
2021/01/05 11:09:04;;;;;;;20.35;14.38;;;;;;;;;;5111592;28;20177;-50
2021/01/05 11:11:29;;;;;;;20.47;15.07;;;;;;;;;;5111432;28;20174;-50
2021/01/05 11:13:54;;;;;;;22.20;15.27;;;;;;;;;;5109715;28;20167;-51
2021/01/05 11:16:20;;;;;;;20.70;14.90;;;;;;;;;;5109793;28;20826;-50
2021/01/05 11:18:45;;;;;;;21.40;15.40;;;;;;;;;;5111364;28;20176;-50
2021/01/05 11:21:14;;;;;;;25.35;16.35;;;;;;;;;;5111777;28;20219;-50
2021/01/05 11:23:39;;;;;;;19.47;15.70;;;;;;;;;;5111517;27;20189;-50
2021/01/05 11:26:05;;;;;;;18.87;14.73;;;;;;;;;;5109349;28;20648;-50
2021/01/05 11:28:30;;;;;;;18.63;15.10;;;;;;;;;;5111188;28;20165;-51
2021/01/05 11:30:55;;;;;;;18.20;14.18;;;;;;;;;;5109507;28;21136;-49
2021/01/05 11:33:20;;;;;;;18.97;14.10;;;;;;;;;;5109466;28;20196;-49
2021/01/05 11:35:46;;;;;;;18.98;14.38;;;;;;;;;;5110848;28;20200;-49
2021/01/05 11:38:11;;;;;;;15.80;13.13;;;;;;;;;;5108540;28;20182;-50
2021/01/05 11:40:37;;;;;;;18.33;13.27;;;;;;;;;;5109284;28;20543;-50
2021/01/05 11:43:02;;;;;;;17.33;13.40;;;;;;;;;;5110435;28;20237;-50
2021/01/05 11:45:27;;;;;;;19.60;13.77;;;;;;;;;;5109322;28;20251;-50
2021/01/05 11:47:52;;;;;;;15.00;13.10;;;;;;;;;;5105855;28;20169;-50
2021/01/05 11:50:17;;;;;;;17.52;13.20;;;;;;;;;;5107498;28;20171;-50
2021/01/05 11:52:42;;;;;;;17.70;13.37;;;;;;;;;;5107854;28;20191;-50
2021/01/05 11:55:09;;;;;;;17.43;14.17;;;;;;;;;;5105486;28;20351;-50
2021/01/05 11:57:34;;;;;;;21.03;14.73;;;;;;;;;;5107910;28;20500;-51
2021/01/05 11:59:59;;;;;;;19.97;13.17;;;;;;;;;;5107403;28;20646;-51
2021/01/05 12:02:24;;;;;;;19.03;13.13;;;;;;;;;;5107847;28;20268;-49
2021/01/05 12:04:49;;;;;;;21.70;15.23;;;;;;;;;;5103459;28;20172;-49
2021/01/05 12:07:15;;;;;;;20.58;15.07;;;;;;;;;;5107694;28;20178;-50
2021/01/05 12:09:40;;;;;;;19.33;15.00;;;;;;;;;;5107587;28;20204;-51
2021/01/05 12:12:08;;;;;;;17.20;13.65;;;;;;;;;;5106987;28;20233;-51
2021/01/05 12:14:34;;;;;;;22.50;15.43;;;;;;;;;;5105575;28;20678;-51
2021/01/05 12:17:00;;;;;;;24.30;17.03;;;;;;;;;;5105428;28;20596;-50
2021/01/05 12:19:26;;;;;;;28.07;16.67;;;;;;;;;;5107226;28;20323;-49
2021/01/05 12:21:56;;;;;;;20.57;15.07;;;;;;;;;;5106925;28;20618;-49
2021/01/05 12:24:22;;;;;;;21.60;15.33;;;;;;;;;;5103432;28;20612;-49
2021/01/05 12:26:48;;;;;;;19.57;14.53;;;;;;;;;;5107344;28;20657;-51
2021/01/05 12:29:21;;;;;;;19.07;14.53;;;;;;;;;;5107093;28;20733;-49
2021/01/05 12:31:47;;;;;;;20.43;15.70;;;;;;;;;;5106777;28;20171;-49
2021/01/05 12:34:13;;;;;;;20.60;16.00;;;;;;;;;;5104891;28;20564;-48
2021/01/05 12:36:39;;;;;;;23.67;15.80;;;;;;;;;;5107383;28;21187;-49
2021/01/05 12:39:05;;;;;;;19.80;14.40;;;;;;;;;;5107125;28;20176;-49
2021/01/05 12:41:36;;;;;;;20.67;14.47;;;;;;;;;;5106264;28;20599;-49
2021/01/05 12:44:01;;;;;;;18.80;14.67;;;;;;;;;;5104179;28;20744;-49
2021/01/05 12:46:27;;;;;;;15.90;11.63;;;;;;;;;;5108338;28;20750;-49
2021/01/05 12:48:52;;;;;;;17.80;12.77;;;;;;;;;;5109791;28;20164;-49
2021/01/05 12:51:24;;;;;;;17.37;13.13;;;;;;;;;;5109722;28;20590;-52
2021/01/05 12:53:49;;;;;;;22.33;15.90;;;;;;;;;;5086190;28;20164;-51
2021/01/05 12:56:16;;;;;;;19.58;14.32;;;;;;;;;;5105253;28;20599;-51
2021/01/05 12:58:41;;;;;;;17.87;14.20;;;;;;;;;;5089933;28;20188;-51
2021/01/05 13:01:06;;;;;;;19.42;13.80;;;;;;;;;;5100760;28;20600;-51
2021/01/05 13:03:31;;;;;;;16.90;12.48;;;;;;;;;;5113752;28;20187;-52
2021/01/05 13:06:26;;;;;;;15.20;12.23;;;;;;;;;;5103468;27;20616;-50
2021/01/05 13:08:51;;;;;;;16.20;12.40;;;;;;;;;;5105633;28;20187;-52
2021/01/05 13:11:20;;;;;;;16.07;12.87;;;;;;;;;;5112649;28;20934;-52
2021/01/05 13:13:46;;;;;;;17.70;13.17;;;;;;;;;;5106956;28;20181;-51
2021/01/05 13:16:15;;;;;;;15.80;12.53;;;;;;;;;;5111682;28;20617;-51
2021/01/05 13:18:40;;;;;;;19.13;14.73;;;;;;;;;;5112061;28;20266;-51
2021/01/05 13:21:05;;;;;;;20.92;13.68;;;;;;;;;;5111523;27;20717;-52
2021/01/05 13:23:30;;;;;;;19.23;14.38;;;;;;;;;;5115815;27;20258;-49
2021/01/05 13:25:55;;;;;;;20.23;14.57;;;;;;;;;;5107674;27;20746;-48
2021/01/05 13:28:20;;;;;;;18.15;15.38;;;;;;;;;;5113161;27;20169;-50
2021/01/05 13:30:46;;;;;;;20.42;15.38;;;;;;;;;;5111765;28;20215;-50
2021/01/05 13:33:11;;;;;;;17.92;12.80;;;;;;;;;;5110699;28;20646;-49
2021/01/05 13:35:40;;;;;;;17.38;13.57;;;;;;;;;;5109387;28;20179;-50
2021/01/05 13:38:05;;;;;;;16.80;12.10;;;;;;;;;;5111601;27;20179;-48
2021/01/05 13:40:30;;;;;;;20.33;14.95;;;;;;;;;;5112756;28;20706;-49
2021/01/05 13:42:56;;;;;;;18.05;13.25;;;;;;;;;;5113109;28;20219;-50
2021/01/05 13:45:21;;;;;;;21.83;14.13;;;;;;;;;;5110794;28;20209;-49
2021/01/05 13:47:47;;;;;;;17.67;13.40;;;;;;;;;;5113247;28;20599;-50
2021/01/05 13:50:12;;;;;;;15.77;13.40;;;;;;;;;;5112111;28;20189;-49
2021/01/05 13:52:43;;;;;;;20.90;14.70;;;;;;;;;;5113310;27;20191;-50
2021/01/05 13:55:09;;;;;;;24.60;17.50;;;;;;;;;;5110061;28;20176;-49
2021/01/05 13:57:34;;;;;;;24.77;15.37;;;;;;;;;;5112671;28;22346;-50
2021/01/05 13:59:59;;;;;;;21.02;15.07;;;;;;;;;;5112456;28;20193;-50
2021/01/05 14:02:24;;;;;;;18.80;14.98;;;;;;;;;;5111928;27;20180;-50
2021/01/05 14:04:50;;;;;;;17.20;13.57;;;;;;;;;;5111103;28;20176;-50
2021/01/05 14:07:15;;;;;;;21.83;14.70;;;;;;;;;;5112302;28;20612;-49
2021/01/05 14:09:42;;;;;;;16.53;12.87;;;;;;;;;;5111791;27;20539;-49
2021/01/05 14:12:07;;;;;;;18.17;14.63;;;;;;;;;;5111131;28;20589;-50
2021/01/05 14:14:32;;;;;;;25.93;15.10;;;;;;;;;;5110738;28;20598;-49
2021/01/05 14:16:58;;;;;;;24.47;15.87;;;;;;;;;;5110493;28;20173;-50